createdAt,value
2023-03-22T00:01:23.005Z,43.40
2023-03-22T00:03:53.128Z,32.60
2023-03-22T00:06:23.892Z,13.00
2023-03-22T00:08:54.413Z,15.50
2023-03-22T00:11:26.073Z,20.40
2023-03-22T00:13:55.631Z,1.00
2023-03-22T00:16:24.960Z,13.30
2023-03-22T00:18:54.553Z,6.10
2023-03-22T00:21:25.462Z,7.20
2023-03-22T00:23:54.796Z,51.50
2023-03-22T00:26:24.090Z,54.70
2023-03-22T00:28:53.517Z,99.90
2023-03-22T00:31:23.007Z,99.90
2023-03-22T00:33:52.572Z,99.90
2023-03-22T00:36:22.042Z,99.90
2023-03-22T00:38:55.441Z,99.90
2023-03-22T00:41:25.674Z,99.90
2023-03-22T00:43:55.004Z,99.90
2023-03-22T00:46:26.159Z,99.90
2023-03-22T00:48:55.900Z,99.90
2023-03-22T00:51:25.117Z,99.90
2023-03-22T00:53:56.404Z,99.90
2023-03-22T00:56:25.819Z,99.90
2023-03-22T00:59:03.178Z,99.90
2023-03-22T01:01:32.815Z,99.90
2023-03-22T01:04:03.389Z,99.90
2023-03-22T01:06:35.245Z,99.90
2023-03-22T01:09:06.321Z,99.90
2023-03-22T01:11:35.630Z,99.90
2023-03-22T01:14:04.876Z,99.90
2023-03-22T01:16:34.081Z,99.90
2023-03-22T01:19:03.911Z,99.90
2023-03-22T01:21:33.682Z,99.90
2023-03-22T01:24:05.164Z,99.90
2023-03-22T01:26:34.627Z,99.90
2023-03-22T01:29:04.393Z,99.90
2023-03-22T01:31:33.802Z,99.90
2023-03-22T01:34:03.804Z,99.90
2023-03-22T01:36:33.268Z,99.90
2023-03-22T01:39:03.109Z,99.90
2023-03-22T01:41:35.359Z,99.90
2023-03-22T01:44:16.101Z,99.90
2023-03-22T01:46:47.095Z,99.90
2023-03-22T01:49:21.125Z,99.90
2023-03-22T01:51:52.634Z,99.90
2023-03-22T01:54:51.999Z,99.90
2023-03-22T01:57:39.150Z,99.90
2023-03-22T02:00:16.071Z,99.90
2023-03-22T02:03:08.678Z,99.90
2023-03-22T02:05:43.386Z,99.90
2023-03-22T02:08:15.197Z,99.90
2023-03-22T02:11:20.151Z,99.90
2023-03-22T02:14:10.527Z,99.90
2023-03-22T02:17:29.018Z,99.90
2023-03-22T02:20:58.292Z,99.90
2023-03-22T02:24:12.116Z,99.90
2023-03-22T02:27:09.398Z,99.90
2023-03-22T02:29:46.178Z,99.90
2023-03-22T02:32:47.590Z,99.90
2023-03-22T02:35:48.340Z,99.90
2023-03-22T02:38:45.996Z,99.90
2023-03-22T02:41:23.466Z,99.90
2023-03-22T02:44:06.200Z,99.90
2023-03-22T02:46:42.133Z,99.90
2023-03-22T02:49:20.295Z,99.90
2023-03-22T02:51:54.602Z,99.90
2023-03-22T02:54:29.192Z,99.90
2023-03-22T02:57:04.575Z,99.90
2023-03-22T02:59:39.892Z,99.90
2023-03-22T03:02:13.000Z,99.90
2023-03-22T03:04:46.462Z,99.90
2023-03-22T03:07:19.562Z,99.90
2023-03-22T03:09:49.751Z,99.90
2023-03-22T03:12:23.759Z,99.90
2023-03-22T03:14:56.649Z,99.90
2023-03-22T03:17:39.447Z,99.90
2023-03-22T03:20:24.788Z,99.90
2023-03-22T03:23:07.724Z,99.90
2023-03-22T03:25:43.754Z,99.90
2023-03-22T03:28:23.251Z,99.90
2023-03-22T03:31:01.618Z,99.90
2023-03-22T03:33:34.074Z,99.90
2023-03-22T03:36:11.469Z,99.90
2023-03-22T03:38:47.712Z,99.90
2023-03-22T03:41:20.535Z,99.90
2023-03-22T03:43:58.500Z,99.90
2023-03-22T03:46:29.576Z,99.90
2023-03-22T03:49:00.225Z,99.90
2023-03-22T03:51:29.945Z,99.90
2023-03-22T03:53:59.140Z,99.90
2023-03-22T03:56:28.602Z,99.90
2023-03-22T03:59:00.174Z,99.90
2023-03-22T04:01:29.574Z,99.90
2023-03-22T04:04:19.608Z,99.90
2023-03-22T04:06:53.212Z,99.90
2023-03-22T04:09:27.611Z,99.90
2023-03-22T04:12:02.042Z,99.90
2023-03-22T04:14:32.962Z,99.90
2023-03-22T04:17:08.858Z,99.90
2023-03-22T04:19:38.456Z,99.90
2023-03-22T04:22:08.071Z,99.90
2023-03-22T04:24:38.113Z,99.90
2023-03-22T04:27:08.479Z,99.90
2023-03-22T04:30:01.284Z,99.90
2023-03-22T04:32:56.799Z,99.90
2023-03-22T04:35:37.341Z,99.90
2023-03-22T04:38:08.158Z,99.90
2023-03-22T04:40:39.183Z,99.90
2023-03-22T04:43:13.867Z,99.90
2023-03-22T04:45:55.250Z,99.90
2023-03-22T04:48:29.824Z,99.90
2023-03-22T04:51:04.386Z,99.90
2023-03-22T04:53:40.298Z,99.90
2023-03-22T04:56:13.418Z,99.90
2023-03-22T04:58:45.678Z,99.90
2023-03-22T05:01:18.696Z,99.90
2023-03-22T05:03:52.619Z,99.90
2023-03-22T05:06:24.622Z,99.90
2023-03-22T05:09:08.323Z,99.90
2023-03-22T05:11:38.272Z,99.90
2023-03-22T05:14:26.044Z,99.90
2023-03-22T05:16:57.440Z,99.90
2023-03-22T05:19:26.866Z,99.90
2023-03-22T05:21:58.666Z,99.90
2023-03-22T05:24:43.947Z,99.90
2023-03-22T05:27:17.389Z,99.90
2023-03-22T05:29:47.042Z,99.90
2023-03-22T05:32:29.584Z,99.90
2023-03-22T05:35:03.902Z,99.90
2023-03-22T05:37:41.201Z,99.90
2023-03-22T05:40:11.896Z,99.90
2023-03-22T05:42:46.482Z,99.90
2023-03-22T05:45:26.531Z,99.90
2023-03-22T05:48:09.836Z,99.90
2023-03-22T05:50:39.915Z,99.90
2023-03-22T05:53:09.434Z,99.90
2023-03-22T05:56:05.114Z,99.90
2023-03-22T05:58:36.359Z,99.90
2023-03-22T06:01:12.510Z,99.90
2023-03-22T06:03:49.775Z,84.20
2023-03-22T06:06:42.294Z,17.90
2023-03-22T06:09:28.192Z,6.50
2023-03-22T06:11:57.561Z,1.00
2023-03-22T06:14:26.806Z,1.00
2023-03-22T06:17:07.211Z,1.00
2023-03-22T06:19:38.213Z,1.00
2023-03-22T06:22:09.277Z,1.00
2023-03-22T06:24:40.874Z,1.00
2023-03-22T06:27:12.547Z,99.90
2023-03-22T06:29:43.205Z,1.00
2023-03-22T06:32:12.626Z,99.90
2023-03-22T06:34:43.503Z,99.90
2023-03-22T06:37:13.914Z,1.00
2023-03-22T06:39:45.125Z,97.50
2023-03-22T06:42:14.887Z,99.90
2023-03-22T06:44:46.178Z,99.90
2023-03-22T06:47:36.486Z,1.00
2023-03-22T06:50:11.054Z,99.90
2023-03-22T06:53:06.380Z,99.90
2023-03-22T06:55:36.573Z,99.90
2023-03-22T06:58:26.024Z,99.90
2023-03-22T07:00:57.563Z,99.90
2023-03-22T07:03:29.142Z,54.70
2023-03-22T07:06:09.479Z,99.90
2023-03-22T07:08:43.243Z,71.80
2023-03-22T07:11:15.316Z,99.90
2023-03-22T07:13:48.060Z,99.90
2023-03-22T07:16:21.536Z,99.90
2023-03-22T07:18:56.256Z,99.90
2023-03-22T07:21:28.009Z,99.90
2023-03-22T07:24:03.309Z,99.90
2023-03-22T07:26:34.800Z,99.90
2023-03-22T07:29:05.773Z,99.90
2023-03-22T07:31:36.934Z,99.90
2023-03-22T07:34:08.997Z,99.90
2023-03-22T07:37:00.236Z,99.90
2023-03-22T07:39:30.452Z,99.90
2023-03-22T07:42:00.368Z,99.90
2023-03-22T07:44:44.685Z,99.90
2023-03-22T07:47:40.780Z,99.90
2023-03-22T07:50:30.594Z,99.90
2023-03-22T07:53:06.118Z,99.90
2023-03-22T07:55:35.633Z,99.90
2023-03-22T07:58:06.260Z,99.90
2023-03-22T08:00:35.823Z,99.90
2023-03-22T08:03:24.191Z,99.90
2023-03-22T08:06:16.662Z,99.90
2023-03-22T08:08:47.511Z,99.90
2023-03-22T08:11:16.925Z,99.90
2023-03-22T08:13:46.658Z,99.90
2023-03-22T08:16:17.345Z,99.90
2023-03-22T08:18:47.374Z,99.90
2023-03-22T08:21:17.206Z,75.80
2023-03-22T08:23:51.784Z,90.90
2023-03-22T08:26:30.293Z,82.70
2023-03-22T08:29:06.086Z,99.90
2023-03-22T08:31:38.642Z,77.60
2023-03-22T08:34:07.967Z,99.90
2023-03-22T08:36:37.264Z,99.90
2023-03-22T08:39:08.638Z,99.90
2023-03-22T08:41:46.741Z,99.90
2023-03-22T08:44:16.323Z,99.40
2023-03-22T08:46:46.001Z,99.90
2023-03-22T08:49:15.788Z,59.70
2023-03-22T08:51:51.902Z,81.90
2023-03-22T08:54:45.846Z,99.90
2023-03-22T08:57:53.994Z,99.90
2023-03-22T09:00:49.046Z,99.90
2023-03-22T09:03:33.855Z,99.90
2023-03-22T09:06:03.088Z,99.90
2023-03-22T09:08:37.364Z,99.90
2023-03-22T09:11:16.666Z,99.90
2023-03-22T09:13:48.409Z,99.90
2023-03-22T09:16:18.054Z,99.90
2023-03-22T09:18:48.613Z,99.90
2023-03-22T09:21:22.281Z,99.90
2023-03-22T09:23:59.683Z,99.90
2023-03-22T09:26:42.199Z,99.90
2023-03-22T09:29:11.962Z,1.00
2023-03-22T09:31:42.617Z,99.90
2023-03-22T09:34:20.877Z,99.90
2023-03-22T09:36:52.798Z,1.00
2023-03-22T09:39:26.097Z,1.00
2023-03-22T09:42:04.037Z,1.00
2023-03-22T09:44:38.214Z,1.00
2023-03-22T09:47:18.074Z,1.00
2023-03-22T09:49:53.879Z,1.00
2023-03-22T09:52:24.039Z,1.00
2023-03-22T09:54:53.554Z,1.00
2023-03-22T09:57:33.107Z,1.00
2023-03-22T10:00:15.176Z,1.00
2023-03-22T10:03:03.593Z,1.00
2023-03-22T10:05:39.806Z,1.00
2023-03-22T10:08:32.893Z,99.90
2023-03-22T10:11:02.790Z,99.90
2023-03-22T10:13:38.462Z,99.90
2023-03-22T10:16:12.090Z,99.90
2023-03-22T10:18:47.393Z,99.90
2023-03-22T10:21:18.895Z,99.90
2023-03-22T10:23:52.943Z,99.90
2023-03-22T10:26:26.296Z,99.90
2023-03-22T10:29:04.025Z,99.90
2023-03-22T10:31:35.429Z,99.90
2023-03-22T10:34:08.380Z,99.90
2023-03-22T10:36:40.268Z,99.90
2023-03-22T10:39:18.280Z,99.90
2023-03-22T10:41:48.644Z,99.90
2023-03-22T10:44:22.299Z,99.90
2023-03-22T10:46:53.877Z,1.00
2023-03-22T10:49:27.898Z,99.90
2023-03-22T10:52:01.722Z,99.90
2023-03-22T10:54:31.828Z,99.90
2023-03-22T10:57:01.108Z,99.90
2023-03-22T10:59:52.540Z,99.90
2023-03-22T11:02:25.194Z,99.90
2023-03-22T11:04:56.080Z,99.90
2023-03-22T11:07:37.477Z,99.90
2023-03-22T11:10:29.964Z,99.90
2023-03-22T11:13:14.767Z,99.90
2023-03-22T11:15:54.788Z,99.90
2023-03-22T11:18:24.333Z,99.90
2023-03-22T11:21:00.737Z,99.90
2023-03-22T11:23:34.022Z,99.90
2023-03-22T11:26:09.349Z,99.90
2023-03-22T11:28:42.528Z,99.90
2023-03-22T11:31:14.872Z,99.90
2023-03-22T11:33:57.683Z,1.00
2023-03-22T11:36:27.878Z,1.00
2023-03-22T11:39:01.885Z,1.00
2023-03-22T11:41:33.662Z,1.00
2023-03-22T11:44:06.230Z,1.00
2023-03-22T11:46:38.167Z,1.00
2023-03-22T11:49:10.597Z,1.00
2023-03-22T11:51:41.113Z,1.00
2023-03-22T11:54:16.146Z,1.00
2023-03-22T11:56:49.671Z,1.00
2023-03-22T11:59:25.384Z,99.90
2023-03-22T12:02:01.933Z,99.90
2023-03-22T12:04:35.937Z,99.90
2023-03-22T12:07:12.158Z,99.90
2023-03-22T12:09:45.311Z,99.90
2023-03-22T12:12:19.365Z,99.90
2023-03-22T12:14:53.382Z,99.90
2023-03-22T12:17:31.989Z,99.90
2023-03-22T12:20:09.151Z,99.90
2023-03-22T12:22:43.515Z,99.90
2023-03-22T12:25:17.531Z,99.90
2023-03-22T12:27:51.618Z,99.90
2023-03-22T12:30:24.493Z,99.90
2023-03-22T12:33:01.880Z,99.90
2023-03-22T12:35:35.221Z,99.90
2023-03-22T12:38:13.568Z,99.90
2023-03-22T12:40:44.419Z,99.90
2023-03-22T12:43:18.381Z,99.90
2023-03-22T12:45:53.583Z,99.90
2023-03-22T12:48:34.681Z,45.10
2023-03-22T12:51:07.858Z,43.90
2023-03-22T12:53:42.723Z,99.40
2023-03-22T12:56:14.571Z,45.60
2023-03-22T12:58:47.754Z,6.10
2023-03-22T13:01:25.387Z,43.40
2023-03-22T13:03:58.052Z,22.50
2023-03-22T13:06:36.974Z,62.70
2023-03-22T13:09:17.159Z,77.80
2023-03-22T13:11:49.071Z,52.50
2023-03-22T13:15:01.436Z,82.20
2023-03-22T13:17:51.724Z,1.00
2023-03-22T13:20:34.691Z,17.70
2023-03-22T13:23:10.820Z,2.60
2023-03-22T13:25:59.526Z,26.50
2023-03-22T13:28:30.255Z,53.30
2023-03-22T13:31:00.587Z,18.50
2023-03-22T13:33:33.065Z,41.90
2023-03-22T13:36:09.418Z,30.50
2023-03-22T13:38:42.983Z,1.00
2023-03-22T13:41:23.261Z,35.10
2023-03-22T13:43:55.556Z,38.90
2023-03-22T13:46:46.975Z,41.90
2023-03-22T13:49:44.883Z,16.60
2023-03-22T13:52:44.616Z,41.20
2023-03-22T13:55:41.970Z,71.20
2023-03-22T13:58:13.416Z,1.00
2023-03-22T14:00:50.936Z,12.50
2023-03-22T14:03:28.822Z,1.00
2023-03-22T14:06:15.196Z,21.00
2023-03-22T14:08:49.200Z,99.90
2023-03-22T14:11:25.350Z,99.90
2023-03-22T14:14:00.829Z,99.90
2023-03-22T14:16:38.313Z,99.90
2023-03-22T14:19:08.922Z,99.90
2023-03-22T14:21:41.553Z,99.90
